logo dgac
Lunes 20 de Septiembre del 2021
Buscar por aerodromo o helipuerto
Ingrese nombre de aeródromo, localidad o designador OACI:

Aeródromo: María Dolores (PUB) (SCGE)

Ubicación: Los Ángeles, VIII Región, Chile (37º 24' 07'' S, 72º 25' 32'' W) Ver ubicación en el mapa

Pistas

Orientación Dimensión Pendiente Superficie Resistencia APCH THR RWY PAPI
18/36 1700 x 30 0,10 ASPH PCN 34 F/A/X/T No Sí (3.4º)
Horas de operación HJ
Elevación 114 m / 374 ft
Otra Información Adm : D.G.A.C.
Uso : PUB
TEL (56) 224392637
Ubicado a 10 km NW de Los Ángeles
email : aro.mdolores@dgac.gob.cl

Otra información ver AIP-Chile Volumen I AD 3.9-10.8-L
CCCM/FCCV Descargar
andera de Chile
Mapa de María Dolores (PUB) (SCGE)

Último METAR

METAR SCGE 201100Z NIL

Último TAF

TAF SCGE 201011Z 2012/2024 19014KT CAVOK TX19/2018Z TN04/2012Z TEMPO 2016/2020 18017G27KT

Últimas fotos cámaras

Imagen aerodromo María Dolores (PUB) (SCGE) Sur tomada el 20-09-2021 11:23:20 Imagen aerodromo María Dolores (PUB) (SCGE) Norte tomada el 20-09-2021 11:26:22

Último NOTAM

C4154/21 NOTAMN Q)SCEZ/QFUAH/IV/NBO/A/000/999/3724S07226W005 A)SCGE B)2109171958 C)2109202130 D)AGU 17 BTN 1950-2130 AGU 18-20 BTN 1130-2130 E)AVGAS NO AVBL CLUB AEREO CERRADO